Meteo Giornale » Osservazioni meteo Spagna » Gerona-Costa Brava
ore: 18:30 - Osservazioni Meteo Gerona-Costa Brava
Lat. 41° 54' N Lon. 2° 46' E Alt. 143 metri s.l.m.
25 °C
Sereno
Temp. 24 Ore
17 °C
28 °C
Sud
25.9 Km/h
Dew point 17 °C
Umidità 61 %
Visibilità 10 Km
Il sole sorge alle ore 07:14
Il sole tramonta alle ore 20:23
| Data e Ora | Cielo e Fenomeni | T °C | DP °C | Um. % | Pres. hPa | Vis. km | Vento km/h | |
|---|---|---|---|---|---|---|---|---|
| Oggi h: 18:30 | Sereno | 25 | 17 | 61 | 1018 | 10 | S 25.9 | |
| Oggi h: 18:00 | Poco Nuvoloso | 25 | 17 | 61 | 1018 | 10 | S 25.9 | |
| Oggi h: 17:30 | Poco Nuvoloso | 25 | 17 | 61 | 1018 | 10 | S 27.8 | |
| Oggi h: 17:00 | Poco Nuvoloso | 25 | 17 | 61 | 1018 | 10 | S 31.5 | |
| Oggi h: 16:30 | Poco Nuvoloso | 25 | 17 | 61 | 1018 | 10 | S 24 | |
| Oggi h: 16:00 | Poco Nuvoloso | 27 | 17 | 54 | 1018 | 10 | S 24 | |
| Oggi h: 15:30 | Poco Nuvoloso | 26 | 16 | 54 | 1019 | 10 | S 22.2 | |
| Oggi h: 15:00 | Poco Nuvoloso | 26 | 15 | 50 | 1019 | 10 | S 25.9 | |
| Oggi h: 14:30 | Poco Nuvoloso | 26 | 15 | 50 | 1019 | 10 | S 25.9 | |
| Oggi h: 14:00 | Poco Nuvoloso | 28 | 15 | 45 | 1020 | 10 | S 25.9 | |
| Oggi h: 13:30 | Poco Nuvoloso | 27 | 14 | 44 | 1020 | 10 | S 24 | |
| Oggi h: 13:00 | Poco Nuvoloso | 28 | 15 | 45 | 1020 | 10 | S/SO 25.9 | |
| Oggi h: 12:30 | Poco Nuvoloso | 27 | 14 | 44 | 1020 | 10 | S/SO 9.3 | |
| Oggi h: 12:00 | Poco Nuvoloso | 26 | 14 | 47 | 1020 | 10 | N 1.8 | |
| Oggi h: 11:30 | Poco Nuvoloso | 25 | 14 | 50 | 1020 | 10 | NE 7.4 | |
| Oggi h: 11:00 | Poco Nuvoloso | 25 | 12 | 44 | 1020 | 10 | N/NE 13 | |
| Oggi h: 10:30 | Poco Nuvoloso | 24 | 11 | 43 | 1020 | 10 | NE 14.8 | |
| Oggi h: 10:00 | Poco Nuvoloso | 23 | 13 | 53 | 1020 | 10 | N/NE 13 | |
| Oggi h: 09:30 | Poco Nuvoloso | 22 | 13 | 56 | 1020 | 10 | N 5.5 | |
| Oggi h: 09:00 | Poco Nuvoloso | 20 | 15 | 72 | 1020 | 10 | N 3.7 | |
| Oggi h: 08:30 | Nuvoloso | 19 | 14 | 72 | 1020 | 10 | N 1.8 | |
| Oggi h: 08:00 | Molto Nuvoloso | 18 | 13 | 72 | 1020 | 10 | N 1.8 | |
| Oggi h: 07:30 | Molto Nuvoloso | 17 | 13 | 77 | 1020 | 10 | N 0 | |
| Oggi h: 07:00 | Poco Nuvoloso | 17 | 12 | 72 | 1020 | 10 | N 0 | |
| Oggi h: 06:30 | Poco Nuvoloso | 17 | 12 | 72 | 1020 | 10 | N 0 | |
| Oggi h: 06:00 | Poco Nuvoloso | 17 | 12 | 72 | 1020 | 10 | N 1.8 | |
| Oggi h: 05:30 | Nuvoloso | 18 | 13 | 72 | 1020 | 10 | N 3.7 | |
| Oggi h: 05:00 | Molto Nuvoloso | 19 | 13 | 68 | 1020 | 10 | N 0 | |
| Oggi h: 04:30 | Molto Nuvoloso | 20 | 13 | 64 | 1020 | 10 | N 0 | |
| Oggi h: 04:00 | Molto Nuvoloso | 19 | 13 | 68 | 1020 | 10 | N 3.7 | |
| Oggi h: 03:30 | Molto Nuvoloso | 19 | 13 | 68 | 1020 | 10 | N 1.8 | |
| Oggi h: 03:00 | Molto Nuvoloso | 18 | 13 | 72 | 1020 | 10 | N 0 | |
| Oggi h: 02:30 | Nuvoloso | 18 | 12 | 67 | 1020 | 10 | N 0 | |
| Oggi h: 02:00 | Nuvoloso | 19 | 12 | 63 | 1021 | 10 | N 3.7 | |
| Oggi h: 01:30 | Nuvoloso | 18 | 12 | 67 | 1021 | 10 | N 0 | |
| Oggi h: 01:00 | Poco Nuvoloso | 19 | 12 | 63 | 1021 | 10 | N 1.8 | |
| Oggi h: 00:30 | Poco Nuvoloso | 20 | 12 | 59 | 1021 | 10 | N 5.5 | |
| Oggi h: 00:00 | Poco Nuvoloso | 20 | 12 | 59 | 1021 | 10 | N 0 | |
| Ieri h: 23:30 | Nuvoloso | 21 | 12 | 56 | 1021 | 10 | N 1.8 | |
| Ieri h: 23:00 | Molto Nuvoloso | 22 | 12 | 53 | 1020 | 10 | N 5.5 | |
| Ieri h: 22:30 | Nuvoloso | 23 | 13 | 53 | 1020 | 10 | N 5.5 | |
| Ieri h: 22:00 | Nuvoloso | 22 | 17 | 73 | 1020 | 10 | N 3.7 | |
| Ieri h: 21:30 | Molto Nuvoloso | 23 | 17 | 68 | 1019 | 10 | N 5.5 | |
| Ieri h: 21:00 | Molto Nuvoloso | 23 | 16 | 64 | 1019 | 10 | S 7.4 | |
| Ieri h: 20:30 | Molto Nuvoloso | 23 | 17 | 68 | 1019 | 10 | E/SE 7.4 | |
| Ieri h: 20:00 | Nuvoloso | 24 | 17 | 64 | 1019 | 10 | S 14.8 | |
| Ieri h: 19:30 | Molto Nuvoloso | 25 | 17 | 61 | 1018 | 10 | S 14.8 | |
| Ieri h: 19:00 | Molto Nuvoloso | 25 | 17 | 61 | 1018 | 10 | S/SE 16.7 | |



